.
WxDataArchive / Data Records for 2006-08-14
2006-08-13 August 2006 2006-08-15

Data Records for Monday, 14 August 2006

Time	Temp	Chill	HIndex	Humid	Dewpt	 Wind 	HiWind	WindDir	Rain 	Barom 
-----	----	-----	------	-----	-----	------	------	-------	-----	----- 
00:00	66.0	66.0	66.0	86	61.7	0	0	---	0.00	29.942 
00:05	65.8	65.8	65.8	86	61.5	0	0	---	0.00	29.942 
00:10	65.6	65.6	65.6	86	61.3	0	0	---	0.00	29.942 
00:15	65.5	65.5	65.5	87	61.5	0	0	---	0.00	29.939 
00:20	65.3	65.3	65.3	87	61.3	0	0	---	0.00	29.939 
00:25	65.3	65.3	65.3	88	61.6	0	0	---	0.00	29.939 
00:30	65.2	65.2	65.2	87	61.2	0	0	---	0.00	29.928 
00:35	65.0	65.0	65.0	88	61.4	0	0	---	0.00	29.928 
00:40	65.0	65.0	65.0	88	61.4	0	0	---	0.00	29.928 
00:45	65.0	65.0	65.0	88	61.4	0	0	---	0.00	29.924 
00:50	65.0	65.0	65.0	89	61.7	0	0	---	0.00	29.924 
00:55	65.0	65.0	65.0	88	61.4	0	0	---	0.00	29.924 
01:00	65.0	65.0	65.0	89	61.7	0	0	---	0.00	29.912 
01:05	65.0	65.0	65.0	89	61.7	0	0	---	0.00	29.912 
01:10	65.0	65.0	65.0	89	61.7	0	0	---	0.00	29.912 
01:15	65.0	65.0	65.0	89	61.7	0	0	---	0.00	29.902 
01:20	64.8	64.8	64.8	90	61.8	0	0	---	0.00	29.902 
01:25	64.8	64.8	64.8	90	61.8	0	0	---	0.00	29.902 
01:30	64.7	64.7	64.7	89	61.4	0	0	---	0.00	29.896 
01:35	64.7	64.7	64.7	90	61.7	0	0	---	0.00	29.896 
01:40	64.7	64.7	64.7	91	62.0	0	0	---	0.00	29.896 
01:45	64.7	64.7	64.7	91	62.0	0	0	---	0.00	29.901 
01:50	64.5	64.5	64.5	91	61.8	0	0	---	0.00	29.901 
01:55	64.5	64.5	64.5	91	61.8	0	0	---	0.00	29.901 
02:00	64.3	64.3	64.3	91	61.6	0	0	---	0.00	29.902 
02:05	64.2	64.2	64.2	91	61.5	0	0	---	0.00	29.902 
02:10	64.2	64.2	64.2	92	61.8	0	0	---	0.00	29.902 
02:15	64.0	64.0	64.0	92	61.6	0	0	---	0.00	29.898 
02:20	63.9	63.9	63.9	92	61.5	0	0	---	0.00	29.898 
02:25	63.7	63.7	63.7	92	61.3	0	0	---	0.00	29.898 
02:30	63.7	63.7	63.7	92	61.3	0	0	---	0.00	29.897 
02:35	63.5	63.5	63.5	92	61.1	0	0	---	0.00	29.897 
02:40	63.5	63.5	63.5	92	61.1	0	0	---	0.00	29.897 
02:45	63.4	63.4	63.4	92	61.0	0	0	---	0.00	29.888 
02:50	63.4	63.4	63.4	92	61.0	0	0	---	0.00	29.888 
02:55	63.5	63.5	63.5	93	61.4	0	0	---	0.00	29.888 
03:00	63.5	63.5	63.5	93	61.4	0	0	---	0.00	29.893 
03:05	63.5	63.5	63.5	93	61.4	0	0	---	0.00	29.893 
03:10	63.4	63.4	63.4	93	61.3	0	0	---	0.00	29.893 
03:15	63.4	63.4	63.4	93	61.3	0	0	---	0.00	29.888 
03:20	63.4	63.4	63.4	93	61.3	0	0	---	0.00	29.888 
03:25	63.4	63.4	63.4	93	61.3	0	0	---	0.00	29.888 
03:30	63.4	63.4	63.4	92	61.0	0	0	---	0.00	29.886 
03:35	63.4	63.4	63.4	92	61.0	0	0	---	0.00	29.886 
03:40	63.4	63.4	63.4	92	61.0	0	0	---	0.00	29.886 
03:45	63.2	63.2	63.2	92	60.8	0	0	---	0.00	29.890 
03:50	63.2	63.2	63.2	92	60.8	0	0	---	0.00	29.890 
03:55	63.2	63.2	63.2	92	60.8	0	0	---	0.00	29.890 
04:00	63.1	63.1	63.1	92	60.7	0	0	---	0.00	29.891 
04:05	63.1	63.1	63.1	92	60.7	0	0	---	0.00	29.891 
04:10	63.1	63.1	63.1	92	60.7	0	0	---	0.00	29.891 
04:15	63.1	63.1	63.1	92	60.7	0	0	---	0.00	29.890 
04:20	63.1	63.1	63.1	92	60.7	0	0	---	0.00	29.890 
04:25	63.1	63.1	63.1	91	60.4	0	0	---	0.00	29.890 
04:30	63.2	63.2	63.2	91	60.5	0	0	---	0.00	29.887 
04:35	63.2	63.2	63.2	91	60.5	0	0	---	0.00	29.887 
04:40	63.4	63.4	63.4	90	60.4	0	0	---	0.00	29.887 
04:45	63.4	63.4	63.4	90	60.4	0	0	---	0.00	29.887 
04:50	63.5	63.5	63.5	89	60.2	0	0	---	0.00	29.887 
04:55	63.7	63.7	63.7	89	60.4	0	1	270	0.00	29.887 
05:00	63.7	63.7	63.7	88	60.1	0	1	270	0.00	29.888 
05:05	63.9	63.9	63.9	88	60.3	0	1	270	0.00	29.888 
05:10	64.2	64.2	64.2	88	60.6	0	1	270	0.00	29.888 
05:15	64.3	64.3	64.3	87	60.3	0	1	270	0.00	29.890 
05:20	64.5	64.5	64.5	87	60.5	0	1	270	0.00	29.890 
05:25	64.7	64.7	64.7	86	60.4	0	1	270	0.00	29.890 
05:30	65.0	65.0	65.0	86	60.7	0	2	270	0.00	29.885 
05:35	65.3	65.3	65.3	85	60.7	0	2	270	0.00	29.885 
05:40	65.6	65.6	65.6	84	60.6	0	1	270	0.00	29.885 
05:45	65.8	65.8	65.8	84	60.8	0	2	270	0.00	29.880 
05:50	66.0	66.0	66.0	84	61.0	0	3	248	0.00	29.880 
05:55	66.1	66.1	66.1	84	61.1	0	1	248	0.00	29.880 
06:00	66.1	66.1	66.1	83	60.8	0	1	248	0.00	29.877 
06:05	66.3	66.3	66.3	83	61.0	0	1	248	0.00	29.877 
06:10	66.3	66.3	66.3	83	61.0	0	2	248	0.00	29.877 
06:15	66.3	66.3	66.3	83	61.0	0	1	248	0.00	29.876 
06:20	66.4	66.4	66.4	83	61.1	1	3	248	0.00	29.876 
06:25	66.4	66.4	66.4	83	61.1	0	2	248	0.00	29.876 
06:30	66.4	66.4	66.4	83	61.1	1	3	248	0.00	29.869 
06:35	66.4	66.4	66.4	83	61.1	0	3	248	0.00	29.869 
06:40	66.4	66.4	66.4	83	61.1	1	3	248	0.00	29.869 
06:45	66.4	66.4	66.4	83	61.1	1	2	248	0.00	29.864 
06:50	66.6	66.6	66.6	83	61.3	1	2	248	0.00	29.864 
06:55	66.6	66.6	66.6	83	61.3	1	3	248	0.00	29.864 
07:00	66.6	66.6	66.6	83	61.3	1	3	248	0.00	29.863 
07:05	66.6	66.6	66.6	83	61.3	0	2	248	0.00	29.863 
07:10	66.8	66.8	66.8	83	61.5	1	4	248	0.00	29.863 
07:15	66.8	66.8	66.8	83	61.5	1	2	248	0.00	29.863 
07:20	66.8	66.8	66.8	83	61.5	0	2	248	0.00	29.863 
07:25	66.9	66.9	66.9	83	61.6	0	3	248	0.00	29.863 
07:30	67.1	67.1	67.1	83	61.8	1	4	248	0.00	29.861 
07:35	67.3	67.3	67.3	83	62.0	1	4	248	0.00	29.861 
07:40	67.6	67.6	67.6	82	61.9	1	4	248	0.00	29.861 
07:45	68.1	68.1	68.1	81	62.0	1	3	270	0.00	29.859 
07:50	68.4	68.4	68.4	81	62.3	2	4	270	0.00	29.859 
07:55	68.8	68.8	68.8	80	62.4	1	4	292	0.00	29.859 
08:00	69.1	69.1	69.1	80	62.7	1	2	292	0.00	29.849 
08:05	69.4	69.4	69.4	80	63.0	1	3	292	0.00	29.849 
08:10	69.8	69.8	69.8	79	63.0	1	4	270	0.00	29.849 
08:15	70.1	70.1	70.1	78	62.9	0	3	270	0.00	29.848 
08:20	70.4	70.4	70.4	78	63.2	2	6	248	0.00	29.848 
08:25	70.8	70.8	70.8	77	63.2	1	3	248	0.00	29.848 
08:30	70.9	70.9	70.9	77	63.3	1	5	270	0.00	29.844 
08:35	71.3	71.3	71.3	77	63.7	1	5	248	0.00	29.844 
08:40	71.6	71.6	71.6	76	63.6	1	4	248	0.00	29.844 
08:45	72.1	72.1	72.1	76	64.1	2	6	248	0.00	29.838 
08:50	72.5	72.5	72.5	76	64.5	1	4	248	0.00	29.838 
08:55	72.8	72.8	72.8	75	64.4	2	4	248	0.00	29.838 
09:00	73.2	73.2	73.2	75	64.8	1	4	270	0.00	29.832 
09:05	73.5	73.5	73.5	75	65.1	1	4	270	0.00	29.832 
09:10	74.0	74.0	74.0	74	65.2	2	5	248	0.00	29.832 
09:15	74.6	74.6	74.6	74	65.7	3	6	248	0.00	29.836 
09:20	74.7	74.7	74.7	73	65.5	2	7	248	0.00	29.836 
09:25	74.9	74.9	74.9	74	66.0	2	5	270	0.00	29.836 
09:30	75.3	75.3	76.6	74	66.4	3	7	270	0.00	29.832 
09:35	75.8	75.8	77.3	73	66.5	3	7	270	0.00	29.832 
09:40	76.0	76.0	77.5	73	66.7	2	5	270	0.00	29.832 
09:45	75.6	75.6	77.0	73	66.3	2	5	248	0.00	29.830 
09:50	75.4	75.4	76.7	74	66.5	2	4	248	0.00	29.830 
09:55	75.4	75.4	76.7	74	66.5	2	7	248	0.00	29.830 
10:00	75.6	75.6	76.9	75	67.1	2	5	270	0.00	29.826 
10:05	75.6	75.6	77.0	74	66.7	3	10	248	0.00	29.826 
10:10	75.8	75.8	77.1	75	67.3	2	4	270	0.00	29.826 
10:15	76.5	76.5	78.1	74	67.6	2	6	270	0.00	29.821 
10:20	77.4	77.4	79.3	72	67.6	3	9	270	0.00	29.821 
10:25	77.9	77.9	80.0	73	68.5	3	6	270	0.00	29.821 
10:30	78.6	78.6	80.9	71	68.4	3	6	270	0.00	29.813 
10:35	78.8	78.8	81.1	69	67.7	4	10	248	0.00	29.813 
10:40	78.3	78.3	80.5	71	68.1	5	13	270	0.00	29.813 
10:45	77.9	77.9	79.9	72	68.1	4	9	270	0.00	29.816 
10:50	77.7	77.7	79.7	73	68.3	3	6	248	0.00	29.816 
10:55	77.7	77.7	79.7	74	68.7	3	6	270	0.00	29.816 
11:00	77.6	77.6	79.6	75	69.0	3	7	270	0.00	29.812 
11:05	77.0	77.0	78.7	76	68.8	4	11	248	0.00	29.812 
11:10	77.0	77.0	78.7	77	69.2	1	3	270	0.00	29.812 
11:15	77.2	77.2	79.0	76	69.0	2	6	248	0.00	29.815 
11:20	76.8	76.8	78.4	77	69.0	4	10	270	0.00	29.815 
11:25	76.7	76.7	78.1	79	69.7	2	4	270	0.00	29.815 
11:30	76.5	76.5	77.8	79	69.5	2	5	270	0.00	29.820 
11:35	76.1	76.1	77.1	80	69.5	2	5	248	0.00	29.820 
11:40	76.0	76.0	77.0	80	69.4	3	7	270	0.00	29.820 
11:45	75.8	75.8	76.6	81	69.5	3	7	248	0.00	29.826 
11:50	75.8	75.8	76.6	81	69.5	3	6	248	0.00	29.826 
11:55	76.0	76.0	76.9	81	69.7	3	6	270	0.00	29.826 
12:00	76.5	76.5	77.8	80	69.9	3	6	270	0.00	29.829 
12:05	76.8	76.8	78.2	80	70.1	2	4	270	0.00	29.829 
12:10	77.0	77.0	78.6	79	70.0	2	5	248	0.00	29.829 
12:15	76.7	76.7	78.2	78	69.3	3	5	292	0.00	29.827 
12:20	76.7	76.7	78.2	78	69.3	3	5	248	0.00	29.827 
12:25	77.0	77.0	78.7	77	69.2	3	7	270	0.00	29.827 
12:30	77.4	77.4	79.3	77	69.6	2	4	248	0.00	29.826 
12:35	77.7	77.7	79.7	77	69.9	3	6	248	0.00	29.826 
12:40	77.9	77.9	80.0	76	69.7	3	6	270	0.00	29.826 
12:45	77.9	77.9	80.0	75	69.3	3	7	248	0.00	29.824 
12:50	78.1	78.1	80.4	76	69.9	3	9	248	0.00	29.824 
12:55	77.9	77.9	80.0	76	69.7	3	5	248	0.00	29.824 
13:00	78.1	78.1	80.4	76	69.9	3	7	270	0.00	29.817 
13:05	78.3	78.3	80.6	74	69.3	3	5	270	0.00	29.817 
13:10	78.1	78.1	80.3	75	69.5	3	5	270	0.00	29.817 
13:15	77.9	77.9	80.0	75	69.3	2	4	248	0.00	29.816 
13:20	77.9	77.9	80.0	74	68.9	2	6	248	0.00	29.816 
13:25	77.7	77.7	79.7	75	69.1	3	6	270	0.00	29.816 
13:30	77.6	77.6	79.6	76	69.4	3	6	270	0.00	29.816 
13:35	77.0	77.0	78.7	77	69.2	2	4	248	0.00	29.816 
13:40	76.7	76.7	78.2	78	69.3	2	5	248	0.00	29.816 
13:45	76.5	76.5	77.8	79	69.5	3	6	270	0.00	29.817 
13:50	76.1	76.1	77.1	80	69.5	3	6	270	0.00	29.817 
13:55	76.0	76.0	76.9	81	69.7	2	5	270	0.00	29.817 
14:00	75.8	75.8	76.6	81	69.5	2	4	248	0.00	29.816 
14:05	75.8	75.8	76.5	82	69.9	1	3	248	0.00	29.816 
14:10	75.8	75.8	76.5	82	69.9	2	4	270	0.00	29.816 
14:15	75.6	75.6	76.1	83	70.1	2	4	248	0.00	29.816 
14:20	75.4	75.4	75.7	84	70.2	2	4	270	0.00	29.816 
14:25	75.4	75.4	75.7	84	70.2	2	3	248	0.00	29.816 
14:30	75.6	75.6	76.1	83	70.1	2	4	248	0.00	29.813 
14:35	76.0	76.0	76.8	82	70.1	2	5	270	0.00	29.813 
14:40	75.8	75.8	76.5	82	69.9	1	3	270	0.00	29.813 
14:45	75.8	75.8	76.6	81	69.5	2	4	270	0.00	29.813 
14:50	75.6	75.6	76.2	82	69.7	3	5	270	0.00	29.813 
14:55	75.3	75.3	75.6	83	69.8	2	5	270	0.00	29.813 
15:00	74.9	74.9	74.9	83	69.4	2	6	315	0.00	29.820 
15:05	74.9	74.9	74.9	83	69.4	2	4	270	0.00	29.820 
15:10	74.9	74.9	74.9	83	69.4	2	4	270	0.00	29.820 
15:15	75.3	75.3	75.8	82	69.4	2	4	292	0.00	29.819 
15:20	75.4	75.4	76.0	81	69.1	2	5	315	0.00	29.819 
15:25	75.4	75.4	76.0	81	69.1	3	5	248	0.00	29.819 
15:30	75.8	75.8	76.6	81	69.5	3	5	248	0.00	29.822 
15:35	76.1	76.1	77.1	80	69.5	2	4	270	0.00	29.822 
15:40	76.0	76.0	77.1	79	69.0	3	5	315	0.00	29.822 
15:45	75.4	75.4	76.1	80	68.8	3	5	315	0.00	29.824 
15:50	74.9	74.9	74.9	81	68.7	3	9	270	0.00	29.824 
15:55	74.2	74.2	74.2	84	69.0	2	5	270	0.00	29.824 
16:00	73.9	73.9	73.9	85	69.1	2	6	315	0.00	29.828 
16:05	73.5	73.5	73.5	85	68.7	2	5	270	0.00	29.828 
16:10	73.3	73.3	73.3	85	68.5	2	4	270	0.00	29.828 
16:15	73.2	73.2	73.2	84	68.1	1	3	338	0.00	29.830 
16:20	73.3	73.3	73.3	84	68.2	1	2	248	0.00	29.830 
16:25	73.5	73.5	73.5	83	68.0	0	2	292	0.00	29.830 
16:30	73.7	73.7	73.7	83	68.2	1	2	315	0.00	29.819 
16:35	74.0	74.0	74.0	82	68.1	0	2	315	0.00	29.819 
16:40	74.2	74.2	74.2	81	68.0	1	3	248	0.00	29.819 
16:45	74.4	74.4	74.4	80	67.8	1	3	315	0.00	29.815 
16:50	74.6	74.6	74.6	80	68.0	1	3	315	0.00	29.815 
16:55	74.9	74.9	74.9	80	68.3	1	3	292	0.00	29.815 
17:00	74.9	74.9	74.9	79	67.9	2	3	270	0.00	29.819 
17:05	75.1	75.1	75.8	79	68.1	1	4	292	0.00	29.819 
17:10	75.4	75.4	76.3	78	68.0	1	3	292	0.00	29.819 
17:15	75.4	75.4	76.3	78	68.0	2	3	270	0.00	29.814 
17:20	75.8	75.8	76.9	78	68.4	2	4	270	0.00	29.814 
17:25	76.1	76.1	77.4	77	68.3	1	3	292	0.00	29.814 
17:30	76.5	76.5	77.9	77	68.7	1	3	292	0.00	29.810 
17:35	76.8	76.8	78.4	76	68.6	1	3	270	0.00	29.810 
17:40	76.8	76.8	78.4	76	68.6	1	3	292	0.00	29.810 
17:45	76.7	76.7	78.3	74	67.8	1	2	292	0.00	29.802 
17:50	76.7	76.7	78.3	73	67.4	2	3	315	0.00	29.802 
17:55	76.7	76.7	78.4	71	66.6	2	4	315	0.00	29.802 
18:00	76.8	76.8	78.5	70	66.3	2	4	315	0.00	29.801 
18:05	77.2	77.2	79.0	70	66.6	1	3	315	0.00	29.801 
18:10	77.2	77.2	79.0	68	65.8	1	3	292	0.00	29.801 
18:15	77.0	77.0	78.8	67	65.2	1	4	315	0.00	29.799 
18:20	77.0	77.0	78.8	66	64.8	1	5	315	0.00	29.799 
18:25	77.0	77.0	78.8	66	64.8	1	3	315	0.00	29.799 
18:30	77.0	77.0	78.8	66	64.8	1	3	315	0.00	29.799 
18:35	77.0	77.0	78.8	66	64.8	1	4	270	0.00	29.799 
18:40	77.0	77.0	78.8	67	65.2	1	4	292	0.00	29.799 
18:45	76.8	76.8	78.6	67	65.0	1	4	315	0.00	29.801 
18:50	76.7	76.7	78.5	67	64.9	2	4	292	0.00	29.801 
18:55	76.5	76.5	78.3	68	65.1	1	4	292	0.00	29.801 
19:00	76.5	76.5	78.2	69	65.6	1	3	292	0.00	29.801 
19:05	76.5	76.5	78.3	68	65.1	2	4	315	0.00	29.801 
19:10	76.5	76.5	78.2	69	65.6	1	2	315	0.00	29.801 
19:15	76.3	76.3	78.0	69	65.4	2	5	315	0.00	29.800 
19:20	76.1	76.1	77.8	70	65.6	1	3	315	0.00	29.800 
19:25	76.0	76.0	77.7	70	65.5	1	4	270	0.00	29.800 
19:30	76.0	76.0	77.7	70	65.5	1	3	270	0.00	29.810 
19:35	75.8	75.8	77.4	70	65.3	1	3	315	0.00	29.810 
19:40	75.6	75.6	77.2	70	65.1	1	3	315	0.00	29.810 
19:45	75.4	75.4	77.0	71	65.3	0	2	270	0.00	29.812 
19:50	75.4	75.4	77.0	71	65.3	1	2	292	0.00	29.812 
19:55	75.3	75.3	77.0	70	64.8	1	4	270	0.00	29.812 
20:00	75.1	75.1	76.9	69	64.2	1	3	270	0.00	29.815 
20:05	74.9	74.9	74.9	69	64.0	0	3	270	0.00	29.815 
20:10	74.7	74.7	74.7	69	63.8	0	2	315	0.00	29.815 
20:15	74.4	74.4	74.4	69	63.5	0	2	315	0.00	29.811 
20:20	74.4	74.4	74.4	69	63.5	0	3	292	0.00	29.811 
20:25	74.2	74.2	74.2	69	63.4	0	2	292	0.00	29.811 
20:30	74.0	74.0	74.0	69	63.2	0	1	292	0.00	29.813 
20:35	73.9	73.9	73.9	69	63.1	0	1	292	0.00	29.813 
20:40	73.7	73.7	73.7	69	62.9	0	1	292	0.00	29.813 
20:45	73.5	73.5	73.5	70	63.1	0	1	292	0.00	29.815 
20:50	73.3	73.3	73.3	70	62.9	0	1	292	0.00	29.815 
20:55	73.0	73.0	73.0	71	63.0	0	1	292	0.00	29.815 
21:00	73.0	73.0	73.0	71	63.0	0	1	292	0.00	29.815 
21:05	72.8	72.8	72.8	72	63.2	0	1	292	0.00	29.815 
21:10	72.7	72.7	72.7	72	63.1	0	1	292	0.00	29.815 
21:15	72.5	72.5	72.5	72	62.9	0	1	292	0.00	29.820 
21:20	72.5	72.5	72.5	73	63.3	0	1	292	0.00	29.820 
21:25	72.3	72.3	72.3	73	63.1	0	2	315	0.00	29.820 
21:30	72.3	72.3	72.3	73	63.1	0	1	315	0.00	29.829 
21:35	72.1	72.1	72.1	73	63.0	0	2	315	0.00	29.829 
21:40	72.1	72.1	72.1	73	63.0	0	1	315	0.00	29.829 
21:45	72.0	72.0	72.0	73	62.9	0	1	315	0.00	29.835 
21:50	72.0	72.0	72.0	73	62.9	0	3	315	0.00	29.835 
21:55	72.0	72.0	72.0	74	63.2	0	1	315	0.00	29.835 
22:00	71.6	71.6	71.6	74	62.9	0	1	315	0.00	29.843 
22:05	71.5	71.5	71.5	75	63.1	0	1	315	0.00	29.843 
22:10	71.3	71.3	71.3	75	63.0	0	1	315	0.00	29.843 
22:15	71.1	71.1	71.1	75	62.8	0	2	315	0.00	29.848 
22:20	70.9	70.9	70.9	75	62.6	0	1	315	0.00	29.848 
22:25	70.6	70.6	70.6	75	62.3	0	1	315	0.00	29.848 
22:30	70.6	70.6	70.6	76	62.7	0	1	315	0.00	29.859 
22:35	70.3	70.3	70.3	76	62.4	0	1	315	0.00	29.859 
22:40	70.1	70.1	70.1	77	62.5	0	1	315	0.00	29.859 
22:45	69.9	69.9	69.9	77	62.3	0	1	315	0.00	29.860 
22:50	69.8	69.8	69.8	77	62.3	0	1	315	0.00	29.860 
22:55	69.6	69.6	69.6	77	62.1	0	2	315	0.00	29.860 
23:00	69.4	69.4	69.4	78	62.2	0	1	315	0.00	29.860 
23:05	69.3	69.3	69.3	78	62.1	0	0	---	0.00	29.860 
23:10	68.9	68.9	68.9	79	62.1	0	0	---	0.00	29.860 
23:15	68.4	68.4	68.4	79	61.6	0	0	---	0.00	29.861 
23:20	68.1	68.1	68.1	80	61.7	0	1	315	0.00	29.861 
23:25	67.9	67.9	67.9	80	61.5	0	1	315	0.00	29.861 
23:30	67.8	67.8	67.8	80	61.4	0	0	---	0.00	29.862 
23:35	67.4	67.4	67.4	81	61.4	0	0	---	0.00	29.862 
23:40	67.1	67.1	67.1	81	61.1	0	0	---	0.00	29.862 
23:45	66.8	66.8	66.8	81	60.8	0	0	---	0.00	29.863 
23:50	66.4	66.4	66.4	82	60.7	0	0	---	0.00	29.863 
23:55	66.1	66.1	66.1	82	60.4	0	0	---	0.00	29.863 

CoCoRaHS
IN-AL-39
A2 Web Hosting
Creative Commons License
GoDaddy
Look for:

loaded 2017-12-12 16:46:58 • last modified 2010-11-18 10:43:29
Privacy PolicyDisclaimer
• wx.awcolley.com is powered by PmWiki v.2002016 •
• all content (unless otherwise noted) © 2017 A W Colley